Time;durP1;ratioP1;P1;durP2;ratioP2;P2;SDS_P1;SDS_P2;PMS_P1;PMS_P2;Temp;Humidity;BMP_temperature;BMP_pressure;BME280_temperature;BME280_humidity;BME280_pressure;Samples;Min_cycle;Max_cycle;Signal;HPM_P1;HPM_P2
2023/05/17 00:00:12;;;;;;;2.70;1.70;;;;;;;;;;5039378;28;20211;-63
2023/05/17 00:02:39;;;;;;;3.70;1.47;;;;;;;;;;5039746;28;20211;-63
2023/05/17 00:05:06;;;;;;;3.17;1.43;;;;;;;;;;5038902;28;20223;-64
2023/05/17 00:07:33;;;;;;;3.60;1.60;;;;;;;;;;5034209;28;20366;-63
2023/05/17 00:10:00;;;;;;;2.73;1.47;;;;;;;;;;5037593;28;20218;-63
2023/05/17 00:12:27;;;;;;;4.47;1.70;;;;;;;;;;5038559;28;20211;-64
2023/05/17 00:14:55;;;;;;;4.63;1.67;;;;;;;;;;5036396;28;20218;-64
2023/05/17 00:17:23;;;;;;;5.40;1.50;;;;;;;;;;5038355;28;20238;-63
2023/05/17 00:19:50;;;;;;;2.47;1.40;;;;;;;;;;5046187;28;20196;-63
2023/05/17 00:22:17;;;;;;;5.23;1.53;;;;;;;;;;5038837;28;20207;-63
2023/05/17 00:24:44;;;;;;;3.30;1.47;;;;;;;;;;5036315;28;20205;-63
2023/05/17 00:27:11;;;;;;;2.00;1.50;;;;;;;;;;5037630;28;20211;-63
2023/05/17 00:29:39;;;;;;;6.00;1.97;;;;;;;;;;5039708;28;20210;-63
2023/05/17 00:32:06;;;;;;;3.70;1.47;;;;;;;;;;5038906;28;20218;-63
2023/05/17 00:34:34;;;;;;;3.37;1.67;;;;;;;;;;5036110;28;20231;-62
2023/05/17 00:37:02;;;;;;;4.43;1.70;;;;;;;;;;5038120;28;20207;-63
2023/05/17 00:39:29;;;;;;;4.93;1.70;;;;;;;;;;5037863;28;20214;-62
2023/05/17 00:41:56;;;;;;;3.13;1.47;;;;;;;;;;5038635;28;20203;-63
2023/05/17 00:44:23;;;;;;;4.10;1.50;;;;;;;;;;5036438;28;20203;-62
2023/05/17 00:46:50;;;;;;;3.97;1.50;;;;;;;;;;5042245;28;20235;-63
2023/05/17 00:49:18;;;;;;;1.60;1.40;;;;;;;;;;5041002;28;20214;-62
2023/05/17 00:51:46;;;;;;;3.87;1.63;;;;;;;;;;5043339;28;20272;-62
2023/05/17 00:54:15;;;;;;;2.57;1.40;;;;;;;;;;5042136;28;20224;-63
2023/05/17 00:56:42;;;;;;;3.17;1.53;;;;;;;;;;5042986;28;20206;-62
2023/05/17 00:59:09;;;;;;;3.37;1.70;;;;;;;;;;5042188;28;20200;-63
2023/05/17 01:01:37;;;;;;;4.33;1.43;;;;;;;;;;5045838;28;20219;-62
2023/05/17 01:04:04;;;;;;;1.93;1.40;;;;;;;;;;5042069;28;20199;-62
2023/05/17 01:06:31;;;;;;;2.33;1.40;;;;;;;;;;5038871;28;20199;-63
2023/05/17 01:09:00;;;;;;;3.93;1.60;;;;;;;;;;5039594;28;20215;-63
2023/05/17 01:11:32;;;;;;;2.30;1.33;;;;;;;;;;5041046;28;20206;-63
2023/05/17 01:14:03;;;;;;;3.07;1.40;;;;;;;;;;5041961;28;20233;-63
2023/05/17 01:16:31;;;;;;;3.83;1.67;;;;;;;;;;5044557;28;20231;-63
2023/05/17 01:19:03;;;;;;;2.80;1.40;;;;;;;;;;5039580;28;20215;-63
2023/05/17 01:21:37;;;;;;;7.40;1.83;;;;;;;;;;5042570;28;20243;-63
2023/05/17 01:24:13;;;;;;;3.60;1.53;;;;;;;;;;5038608;28;20202;-62
2023/05/17 01:26:43;;;;;;;2.90;1.43;;;;;;;;;;5044005;28;20207;-63
2023/05/17 01:29:12;;;;;;;5.80;1.87;;;;;;;;;;5043706;28;20204;-63
2023/05/17 01:31:40;;;;;;;3.63;1.50;;;;;;;;;;5047069;28;20199;-63
2023/05/17 01:34:08;;;;;;;5.63;1.40;;;;;;;;;;5042604;28;20238;-63
2023/05/17 01:36:36;;;;;;;4.10;1.67;;;;;;;;;;5037197;28;20206;-63
2023/05/17 01:39:03;;;;;;;6.17;1.80;;;;;;;;;;5048541;28;20206;-62
2023/05/17 01:41:34;;;;;;;5.10;1.70;;;;;;;;;;5043849;28;20207;-63
2023/05/17 01:44:05;;;;;;;4.43;1.40;;;;;;;;;;5040699;28;20208;-63
2023/05/17 01:46:33;;;;;;;5.67;1.50;;;;;;;;;;5041700;28;20203;-62
2023/05/17 01:49:06;;;;;;;5.93;1.87;;;;;;;;;;5050214;28;20234;-62
2023/05/17 01:51:34;;;;;;;5.03;1.97;;;;;;;;;;5052432;28;20210;-62
2023/05/17 01:54:03;;;;;;;7.47;1.60;;;;;;;;;;5048007;28;20228;-62
2023/05/17 01:56:35;;;;;;;3.60;1.73;;;;;;;;;;5051195;28;20207;-62
2023/05/17 01:59:07;;;;;;;6.67;1.90;;;;;;;;;;5047792;28;20196;-62
2023/05/17 02:01:34;;;;;;;5.73;1.80;;;;;;;;;;5054225;28;20204;-62
2023/05/17 02:04:01;;;;;;;3.10;1.63;;;;;;;;;;5052535;28;20208;-62
2023/05/17 02:06:28;;;;;;;3.90;1.53;;;;;;;;;;5048585;28;20207;-62
2023/05/17 02:08:57;;;;;;;4.83;1.83;;;;;;;;;;5052705;28;20222;-62
2023/05/17 02:11:24;;;;;;;8.50;2.00;;;;;;;;;;5049061;28;20203;-62
2023/05/17 02:13:51;;;;;;;4.57;1.70;;;;;;;;;;5048992;28;20258;-62
2023/05/17 02:16:20;;;;;;;6.57;2.10;;;;;;;;;;5049556;28;20236;-62
2023/05/17 02:18:47;;;;;;;4.53;1.60;;;;;;;;;;5051136;28;20203;-62
2023/05/17 02:21:14;;;;;;;2.60;1.50;;;;;;;;;;5051811;28;20211;-62
2023/05/17 02:23:41;;;;;;;2.73;1.63;;;;;;;;;;5049922;28;20204;-62
2023/05/17 02:26:08;;;;;;;6.80;1.70;;;;;;;;;;5046298;28;20208;-62
2023/05/17 02:28:35;;;;;;;2.57;1.47;;;;;;;;;;5049863;28;20223;-62
2023/05/17 02:31:02;;;;;;;4.70;1.50;;;;;;;;;;5049914;28;20207;-62
2023/05/17 02:33:31;;;;;;;4.10;1.50;;;;;;;;;;5048795;28;20214;-62
2023/05/17 02:35:58;;;;;;;4.23;1.70;;;;;;;;;;5051918;28;20199;-62
2023/05/17 02:38:25;;;;;;;3.33;1.43;;;;;;;;;;5051201;28;20226;-62
2023/05/17 02:40:52;;;;;;;2.17;1.30;;;;;;;;;;5052106;28;20215;-62
2023/05/17 02:43:19;;;;;;;2.77;1.53;;;;;;;;;;5052394;28;20211;-62
2023/05/17 02:45:46;;;;;;;3.10;1.83;;;;;;;;;;5051951;28;20203;-62
2023/05/17 02:48:13;;;;;;;2.67;1.50;;;;;;;;;;5047132;28;20203;-62
2023/05/17 02:50:42;;;;;;;2.87;1.60;;;;;;;;;;5051007;28;20207;-62
2023/05/17 02:53:09;;;;;;;4.97;2.00;;;;;;;;;;5049413;28;20200;-62
2023/05/17 02:55:36;;;;;;;3.07;1.70;;;;;;;;;;5049511;28;20220;-62
2023/05/17 02:58:03;;;;;;;2.70;1.50;;;;;;;;;;5050863;28;20207;-62
2023/05/17 03:00:30;;;;;;;2.63;1.57;;;;;;;;;;5049896;28;20345;-62
2023/05/17 03:02:57;;;;;;;3.47;1.40;;;;;;;;;;5049169;28;20199;-62
2023/05/17 03:05:25;;;;;;;2.97;1.53;;;;;;;;;;5049318;28;20218;-62
2023/05/17 03:07:53;;;;;;;6.47;1.50;;;;;;;;;;5048688;28;20204;-62
2023/05/17 03:10:20;;;;;;;4.13;1.53;;;;;;;;;;5047945;28;20211;-62
2023/05/17 03:12:47;;;;;;;5.00;2.20;;;;;;;;;;5050169;28;20199;-63
2023/05/17 03:15:14;;;;;;;1.77;1.50;;;;;;;;;;5050826;28;20223;-62
2023/05/17 03:17:41;;;;;;;4.07;1.90;;;;;;;;;;5049500;28;20235;-62
2023/05/17 03:20:09;;;;;;;4.53;1.80;;;;;;;;;;5049787;28;20215;-62
2023/05/17 03:22:36;;;;;;;3.43;1.80;;;;;;;;;;5039685;28;20356;-62
2023/05/17 03:25:05;;;;;;;3.10;1.80;;;;;;;;;;5037895;28;20287;-62
2023/05/17 03:27:32;;;;;;;2.83;1.73;;;;;;;;;;5041293;28;20203;-62
2023/05/17 03:30:00;;;;;;;3.13;2.00;;;;;;;;;;5039427;28;20203;-62
2023/05/17 03:32:27;;;;;;;2.77;1.90;;;;;;;;;;5039057;28;20215;-62
2023/05/17 03:34:54;;;;;;;4.40;2.30;;;;;;;;;;5040194;28;20239;-63
2023/05/17 03:37:21;;;;;;;3.13;2.20;;;;;;;;;;5044366;28;20215;-62
2023/05/17 03:39:48;;;;;;;3.60;2.10;;;;;;;;;;5044898;28;20243;-62
2023/05/17 03:42:17;;;;;;;3.17;2.20;;;;;;;;;;5037003;28;20204;-62
2023/05/17 03:44:44;;;;;;;5.10;2.47;;;;;;;;;;5039608;28;20215;-62
2023/05/17 03:47:11;;;;;;;4.27;2.20;;;;;;;;;;5037007;28;20212;-63
2023/05/17 03:49:38;;;;;;;3.37;1.80;;;;;;;;;;5041890;28;20208;-62
2023/05/17 03:52:06;;;;;;;4.30;2.20;;;;;;;;;;5042073;28;20277;-63
2023/05/17 03:54:33;;;;;;;2.90;2.50;;;;;;;;;;5038282;28;20224;-63
2023/05/17 03:57:00;;;;;;;6.77;2.83;;;;;;;;;;5040132;28;20207;-63
2023/05/17 03:59:28;;;;;;;5.13;2.80;;;;;;;;;;5040056;28;20207;-62
2023/05/17 04:01:55;;;;;;;4.60;2.60;;;;;;;;;;5036700;28;20211;-63
2023/05/17 04:04:22;;;;;;;3.80;2.70;;;;;;;;;;5037660;28;20208;-63
2023/05/17 04:06:49;;;;;;;4.97;2.70;;;;;;;;;;5038525;28;20207;-63
2023/05/17 04:09:17;;;;;;;4.27;2.60;;;;;;;;;;5038296;28;20206;-62
2023/05/17 04:11:44;;;;;;;6.87;3.07;;;;;;;;;;5041755;28;20212;-63
2023/05/17 04:14:11;;;;;;;5.40;2.60;;;;;;;;;;5039318;28;20225;-63
2023/05/17 04:16:39;;;;;;;4.27;3.03;;;;;;;;;;5037553;28;20234;-63
2023/05/17 04:19:06;;;;;;;3.67;2.60;;;;;;;;;;5038229;28;20217;-63
2023/05/17 04:21:33;;;;;;;4.20;2.53;;;;;;;;;;5037156;28;20215;-62
2023/05/17 04:24:01;;;;;;;5.50;2.73;;;;;;;;;;5041334;28;20208;-63
2023/05/17 04:26:28;;;;;;;5.80;2.80;;;;;;;;;;5043822;28;20274;-63
2023/05/17 04:28:55;;;;;;;3.17;2.33;;;;;;;;;;5043668;28;20202;-63
2023/05/17 04:31:22;;;;;;;5.40;2.83;;;;;;;;;;5033983;28;20195;-63
2023/05/17 04:33:51;;;;;;;5.00;3.00;;;;;;;;;;5043640;28;20196;-63
2023/05/17 04:36:18;;;;;;;4.27;2.73;;;;;;;;;;5043993;28;20223;-62
2023/05/17 04:38:45;;;;;;;3.53;3.20;;;;;;;;;;5032642;28;20203;-63
2023/05/17 04:41:12;;;;;;;3.80;2.90;;;;;;;;;;5036291;28;20259;-63
2023/05/17 04:43:40;;;;;;;5.33;3.10;;;;;;;;;;5032059;28;20282;-63
2023/05/17 04:46:07;;;;;;;4.30;2.67;;;;;;;;;;5038914;28;20208;-63
2023/05/17 04:48:37;;;;;;;4.17;2.90;;;;;;;;;;5037945;28;20211;-63
2023/05/17 04:51:06;;;;;;;6.60;3.30;;;;;;;;;;5037665;28;20222;-62
2023/05/17 04:53:33;;;;;;;5.00;3.23;;;;;;;;;;5050269;28;20203;-62
2023/05/17 04:56:00;;;;;;;4.83;3.30;;;;;;;;;;5047818;28;20224;-62
2023/05/17 04:58:27;;;;;;;5.33;3.27;;;;;;;;;;5049955;28;20212;-63
2023/05/17 05:00:55;;;;;;;7.03;3.57;;;;;;;;;;5045111;28;20203;-63
2023/05/17 05:03:22;;;;;;;6.73;3.70;;;;;;;;;;5048773;28;20214;-63
2023/05/17 05:05:50;;;;;;;5.73;3.53;;;;;;;;;;5044666;28;20200;-62
2023/05/17 05:08:18;;;;;;;6.87;3.90;;;;;;;;;;5048059;28;20215;-63
2023/05/17 05:10:46;;;;;;;6.13;3.97;;;;;;;;;;5044555;28;20208;-63
2023/05/17 05:13:13;;;;;;;5.23;3.50;;;;;;;;;;5048939;28;20207;-63
2023/05/17 05:15:40;;;;;;;5.90;4.00;;;;;;;;;;5049139;28;20223;-62
2023/05/17 05:18:08;;;;;;;5.57;4.20;;;;;;;;;;5048219;28;20239;-62
2023/05/17 05:20:35;;;;;;;6.87;4.60;;;;;;;;;;5048365;28;20203;-62
2023/05/17 05:23:04;;;;;;;6.93;4.30;;;;;;;;;;5032244;28;20242;-62
2023/05/17 05:25:33;;;;;;;6.27;4.40;;;;;;;;;;5041900;28;20291;-62
2023/05/17 05:28:00;;;;;;;7.33;4.60;;;;;;;;;;5037356;28;20207;-62
2023/05/17 05:30:27;;;;;;;6.03;4.00;;;;;;;;;;5035234;28;20207;-62
2023/05/17 05:32:54;;;;;;;6.73;4.10;;;;;;;;;;5042943;28;20203;-62
2023/05/17 05:35:27;;;;;;;5.03;3.33;;;;;;;;;;5050190;28;20230;-62
2023/05/17 05:37:54;;;;;;;7.30;4.07;;;;;;;;;;5048895;28;20231;-62
2023/05/17 05:40:22;;;;;;;6.80;4.00;;;;;;;;;;5046199;28;20238;-64
2023/05/17 05:42:51;;;;;;;7.33;4.90;;;;;;;;;;5047289;28;20227;-62
2023/05/17 05:45:18;;;;;;;6.67;4.37;;;;;;;;;;5043559;28;20290;-62
2023/05/17 05:47:45;;;;;;;5.80;3.97;;;;;;;;;;5049165;28;20218;-62
2023/05/17 05:50:12;;;;;;;8.73;4.90;;;;;;;;;;5052259;28;20195;-61
2023/05/17 05:52:39;;;;;;;5.97;4.10;;;;;;;;;;5052269;28;20210;-62
2023/05/17 05:55:07;;;;;;;8.03;4.87;;;;;;;;;;5052140;28;20234;-61
2023/05/17 05:57:34;;;;;;;6.43;4.00;;;;;;;;;;5050648;28;20203;-62
2023/05/17 06:00:03;;;;;;;6.97;4.63;;;;;;;;;;5052834;28;20276;-61
2023/05/17 06:02:30;;;;;;;7.67;5.37;;;;;;;;;;5052129;28;20210;-61
2023/05/17 06:04:57;;;;;;;8.83;4.87;;;;;;;;;;5052920;28;20249;-61
2023/05/17 06:07:24;;;;;;;6.50;4.20;;;;;;;;;;5052568;28;20203;-61
2023/05/17 06:09:52;;;;;;;7.37;4.63;;;;;;;;;;5048846;28;20211;-61
2023/05/17 06:12:19;;;;;;;8.10;4.87;;;;;;;;;;5051010;28;20207;-61
2023/05/17 06:14:46;;;;;;;7.60;4.57;;;;;;;;;;5049510;28;20203;-62
2023/05/17 06:17:15;;;;;;;7.87;4.20;;;;;;;;;;5052303;28;20242;-62
2023/05/17 06:19:42;;;;;;;7.30;4.50;;;;;;;;;;5050609;28;20207;-62
2023/05/17 06:22:09;;;;;;;8.93;5.00;;;;;;;;;;5052252;28;20207;-62
2023/05/17 06:24:36;;;;;;;6.37;4.17;;;;;;;;;;5052163;28;20203;-62
2023/05/17 06:27:03;;;;;;;9.37;4.73;;;;;;;;;;5052831;28;20294;-62
2023/05/17 06:29:30;;;;;;;9.23;4.37;;;;;;;;;;5052304;28;20211;-62
2023/05/17 06:31:58;;;;;;;9.60;4.70;;;;;;;;;;5048328;28;20204;-62
2023/05/17 06:34:27;;;;;;;7.27;4.20;;;;;;;;;;5051728;28;20210;-62
2023/05/17 06:36:54;;;;;;;9.43;4.30;;;;;;;;;;5049549;28;20219;-61
2023/05/17 06:39:21;;;;;;;8.20;4.50;;;;;;;;;;5052186;28;20207;-61
2023/05/17 06:41:48;;;;;;;7.37;4.00;;;;;;;;;;5051655;28;20207;-62
2023/05/17 06:44:15;;;;;;;8.23;4.40;;;;;;;;;;5051850;28;20203;-61
2023/05/17 06:46:42;;;;;;;10.13;5.43;;;;;;;;;;5051515;28;20207;-61
2023/05/17 06:49:09;;;;;;;9.97;4.47;;;;;;;;;;5046098;28;20196;-61
2023/05/17 06:51:38;;;;;;;6.97;4.47;;;;;;;;;;5047499;28;20302;-61
2023/05/17 06:54:05;;;;;;;8.47;4.13;;;;;;;;;;5045743;28;20206;-61
2023/05/17 06:56:32;;;;;;;6.33;4.17;;;;;;;;;;5046784;28;20211;-61
2023/05/17 06:58:59;;;;;;;9.97;4.53;;;;;;;;;;5048863;28;20200;-60
2023/05/17 07:01:26;;;;;;;6.70;4.40;;;;;;;;;;5049037;28;20206;-61
2023/05/17 07:03:53;;;;;;;9.83;4.70;;;;;;;;;;5044763;28;20269;-62
2023/05/17 07:06:21;;;;;;;8.53;4.30;;;;;;;;;;5045523;28;20215;-61
2023/05/17 07:08:49;;;;;;;6.67;3.80;;;;;;;;;;5040595;28;20215;-62
2023/05/17 07:11:16;;;;;;;7.20;4.10;;;;;;;;;;5053370;28;20260;-61
2023/05/17 07:13:44;;;;;;;10.73;4.30;;;;;;;;;;5049357;28;20203;-61
2023/05/17 07:16:11;;;;;;;9.77;4.27;;;;;;;;;;5038254;28;20231;-61
2023/05/17 07:18:38;;;;;;;6.67;3.90;;;;;;;;;;5047706;28;20207;-61
2023/05/17 07:21:05;;;;;;;6.20;4.23;;;;;;;;;;5049397;28;20213;-62
2023/05/17 07:23:32;;;;;;;6.97;3.87;;;;;;;;;;5049342;28;20208;-62
2023/05/17 07:26:00;;;;;;;5.90;3.93;;;;;;;;;;5050843;28;20207;-62
2023/05/17 07:28:28;;;;;;;7.93;3.70;;;;;;;;;;5049805;28;20218;-62
2023/05/17 07:30:55;;;;;;;7.60;3.90;;;;;;;;;;5051352;28;20206;-62
2023/05/17 07:33:22;;;;;;;7.70;4.00;;;;;;;;;;5051100;28;20210;-62
2023/05/17 07:35:49;;;;;;;6.63;3.77;;;;;;;;;;5049427;28;20227;-62
2023/05/17 07:38:17;;;;;;;6.50;4.00;;;;;;;;;;5048276;28;20207;-62
2023/05/17 07:40:44;;;;;;;9.37;4.53;;;;;;;;;;5049036;28;20211;-61
2023/05/17 07:43:12;;;;;;;10.37;4.83;;;;;;;;;;5044818;28;20230;-61
2023/05/17 07:45:39;;;;;;;7.23;3.97;;;;;;;;;;5045065;28;20199;-61
2023/05/17 07:48:07;;;;;;;6.73;3.70;;;;;;;;;;5048479;28;20204;-61
2023/05/17 07:50:34;;;;;;;7.87;3.97;;;;;;;;;;5047969;28;20199;-61
2023/05/17 07:53:01;;;;;;;7.37;3.77;;;;;;;;;;5050641;28;20203;-61
2023/05/17 07:55:28;;;;;;;6.35;3.45;;;;;;;;;;5048589;28;20215;-61
2023/05/17 07:57:55;;;;;;;4.80;3.63;;;;;;;;;;5035409;28;20230;-62
2023/05/17 08:00:25;;;;;;;6.50;3.60;;;;;;;;;;5048753;28;20210;-62
2023/05/17 08:02:52;;;;;;;9.48;4.07;;;;;;;;;;5046524;28;20221;-62
2023/05/17 08:05:19;;;;;;;9.15;3.78;;;;;;;;;;5039472;28;20223;-62
2023/05/17 08:07:46;;;;;;;6.13;3.60;;;;;;;;;;5048859;28;20294;-61
2023/05/17 08:10:13;;;;;;;6.25;3.60;;;;;;;;;;5049407;28;20207;-61
2023/05/17 08:12:40;;;;;;;7.88;3.70;;;;;;;;;;5047446;28;20210;-60
2023/05/17 08:15:08;;;;;;;8.75;3.70;;;;;;;;;;5049531;28;20203;-60
2023/05/17 08:17:36;;;;;;;6.40;3.70;;;;;;;;;;5046999;28;20241;-61
2023/05/17 08:20:04;;;;;;;8.85;3.75;;;;;;;;;;5047383;28;20214;-61
2023/05/17 08:22:31;;;;;;;6.75;3.90;;;;;;;;;;5043041;28;20203;-61
2023/05/17 08:24:59;;;;;;;5.90;3.42;;;;;;;;;;5043167;28;20208;-63
2023/05/17 08:27:26;;;;;;;4.65;3.38;;;;;;;;;;5047743;28;20277;-62
2023/05/17 08:29:54;;;;;;;6.50;3.47;;;;;;;;;;5047215;28;20199;-63
2023/05/17 08:32:22;;;;;;;6.28;3.80;;;;;;;;;;5048376;28;20227;-61
2023/05/17 08:34:50;;;;;;;6.07;3.90;;;;;;;;;;5041485;28;20207;-62
2023/05/17 08:37:18;;;;;;;6.88;4.03;;;;;;;;;;5048518;28;20227;-61
2023/05/17 08:39:46;;;;;;;7.80;3.70;;;;;;;;;;5049229;28;20199;-62
2023/05/17 08:42:15;;;;;;;6.63;3.50;;;;;;;;;;5044675;28;20207;-62
2023/05/17 08:44:43;;;;;;;8.02;3.85;;;;;;;;;;5043893;28;20203;-62
2023/05/17 08:47:11;;;;;;;6.43;3.60;;;;;;;;;;5047065;28;20208;-61
2023/05/17 08:49:38;;;;;;;6.05;3.83;;;;;;;;;;5045910;28;20286;-61
2023/05/17 08:52:09;;;;;;;4.55;3.33;;;;;;;;;;5047190;28;20230;-62
2023/05/17 08:54:37;;;;;;;5.28;3.10;;;;;;;;;;5050820;28;20211;-61
2023/05/17 08:57:05;;;;;;;7.07;3.17;;;;;;;;;;5048740;28;20223;-62
2023/05/17 08:59:33;;;;;;;4.28;3.03;;;;;;;;;;5049928;28;20212;-62
2023/05/17 09:02:01;;;;;;;5.43;3.20;;;;;;;;;;5048024;28;20287;-62
2023/05/17 09:04:29;;;;;;;6.00;3.88;;;;;;;;;;5047966;28;20222;-61
2023/05/17 09:06:57;;;;;;;4.45;2.90;;;;;;;;;;5050154;28;20195;-61
2023/05/17 09:09:26;;;;;;;6.05;3.35;;;;;;;;;;5053413;28;20211;-60
2023/05/17 09:11:53;;;;;;;6.35;3.20;;;;;;;;;;5053599;28;20254;-62
2023/05/17 09:14:21;;;;;;;4.75;2.83;;;;;;;;;;5051980;28;20207;-61
2023/05/17 09:16:48;;;;;;;5.72;3.30;;;;;;;;;;5051748;28;20235;-60
2023/05/17 09:19:16;;;;;;;7.05;3.00;;;;;;;;;;5052732;28;20244;-61
2023/05/17 09:21:46;;;;;;;4.45;2.88;;;;;;;;;;5043915;28;20203;-60
2023/05/17 09:24:13;;;;;;;7.25;3.35;;;;;;;;;;5053137;28;20207;-61
2023/05/17 09:26:42;;;;;;;5.85;3.03;;;;;;;;;;5053039;28;20204;-61
2023/05/17 09:29:10;;;;;;;6.15;2.90;;;;;;;;;;5051808;28;20208;-61
2023/05/17 09:31:37;;;;;;;5.75;3.00;;;;;;;;;;5052788;28;20215;-61
2023/05/17 09:34:05;;;;;;;4.25;2.72;;;;;;;;;;5053558;28;20208;-62
2023/05/17 09:36:33;;;;;;;4.05;2.28;;;;;;;;;;5053492;28;20238;-62
2023/05/17 09:39:00;;;;;;;5.88;2.75;;;;;;;;;;5053386;28;20218;-62
2023/05/17 09:41:27;;;;;;;3.70;2.45;;;;;;;;;;5050044;28;20200;-63
2023/05/17 09:43:58;;;;;;;6.85;2.67;;;;;;;;;;5052631;28;20210;-61
2023/05/17 09:46:25;;;;;;;6.70;3.08;;;;;;;;;;5052932;28;20199;-62
2023/05/17 09:48:54;;;;;;;3.80;2.67;;;;;;;;;;5044853;28;20213;-61
2023/05/17 09:51:31;;;;;;;5.43;2.60;;;;;;;;;;5048107;28;20225;-61
2023/05/17 09:53:58;;;;;;;5.25;2.67;;;;;;;;;;5043405;28;20203;-61
2023/05/17 09:56:28;;;;;;;5.15;2.42;;;;;;;;;;5046443;28;20229;-61
2023/05/17 09:58:55;;;;;;;3.83;2.42;;;;;;;;;;5046897;28;20207;-61
2023/05/17 10:01:26;;;;;;;5.47;2.50;;;;;;;;;;5047305;28;20203;-61
2023/05/17 10:03:53;;;;;;;4.18;2.40;;;;;;;;;;5049223;28;20200;-62
2023/05/17 10:06:22;;;;;;;5.80;2.50;;;;;;;;;;5046639;28;20196;-62
2023/05/17 10:08:52;;;;;;;6.72;2.80;;;;;;;;;;5047821;28;20202;-62
2023/05/17 10:11:22;;;;;;;6.18;2.55;;;;;;;;;;5046231;28;20207;-62
2023/05/17 10:13:53;;;;;;;4.97;2.25;;;;;;;;;;5050730;28;20201;-60
2023/05/17 10:16:22;;;;;;;4.15;2.50;;;;;;;;;;5050664;28;20235;-61
2023/05/17 10:18:50;;;;;;;6.65;3.00;;;;;;;;;;5050716;28;20206;-61
2023/05/17 10:21:18;;;;;;;5.18;2.60;;;;;;;;;;5049907;28;20208;-61
2023/05/17 10:23:46;;;;;;;5.43;2.78;;;;;;;;;;5052059;28;20203;-63
2023/05/17 10:26:14;;;;;;;4.22;2.47;;;;;;;;;;5051523;28;20313;-61
2023/05/17 10:28:43;;;;;;;3.92;2.30;;;;;;;;;;5049626;28;20204;-60
2023/05/17 10:31:10;;;;;;;6.18;2.60;;;;;;;;;;5050632;28;20269;-60
2023/05/17 10:33:38;;;;;;;6.70;2.42;;;;;;;;;;5048914;28;20224;-61
2023/05/17 10:36:07;;;;;;;5.10;2.88;;;;;;;;;;5050020;28;20208;-61
2023/05/17 10:38:34;;;;;;;3.55;2.67;;;;;;;;;;5051454;28;20207;-61
2023/05/17 10:41:02;;;;;;;5.82;3.00;;;;;;;;;;5050974;28;20199;-62
2023/05/17 10:43:30;;;;;;;3.90;2.45;;;;;;;;;;5046199;28;20207;-62
2023/05/17 10:45:59;;;;;;;4.00;2.40;;;;;;;;;;5042297;28;20204;-62
2023/05/17 10:48:29;;;;;;;4.13;2.58;;;;;;;;;;5046534;28;20254;-61
2023/05/17 10:50:56;;;;;;;6.20;3.00;;;;;;;;;;5050659;28;20202;-61
2023/05/17 10:53:25;;;;;;;4.30;2.53;;;;;;;;;;5049895;28;20211;-60
2023/05/17 10:55:52;;;;;;;4.03;2.60;;;;;;;;;;5049375;28;20225;-60
2023/05/17 10:58:20;;;;;;;3.67;2.55;;;;;;;;;;5046281;28;20224;-61
2023/05/17 11:00:48;;;;;;;5.15;2.63;;;;;;;;;;5042279;28;20203;-60
2023/05/17 11:03:16;;;;;;;5.68;2.58;;;;;;;;;;5047415;28;20218;-61
2023/05/17 11:05:44;;;;;;;6.28;2.65;;;;;;;;;;5047332;28;20223;-62
2023/05/17 11:08:15;;;;;;;4.97;2.40;;;;;;;;;;5049004;28;20211;-62
2023/05/17 11:10:57;;;;;;;4.32;2.53;;;;;;;;;;5050759;28;20206;-61
2023/05/17 11:13:27;;;;;;;8.77;2.83;;;;;;;;;;5045235;28;20202;-61
2023/05/17 11:16:03;;;;;;;4.53;2.58;;;;;;;;;;5043975;28;20207;-62
2023/05/17 11:18:45;;;;;;;3.70;2.03;;;;;;;;;;5045436;28;20292;-62
2023/05/17 11:21:14;;;;;;;5.05;2.67;;;;;;;;;;5040063;28;20208;-62
2023/05/17 11:23:43;;;;;;;2.97;1.80;;;;;;;;;;5043816;28;20196;-63
2023/05/17 11:26:15;;;;;;;3.75;2.28;;;;;;;;;;5045565;28;20233;-63
2023/05/17 11:28:43;;;;;;;4.35;2.20;;;;;;;;;;5043885;28;20200;-62
2023/05/17 11:31:11;;;;;;;3.58;2.08;;;;;;;;;;5049208;28;20207;-63
2023/05/17 11:33:39;;;;;;;4.20;2.10;;;;;;;;;;5047772;28;20203;-62
2023/05/17 11:36:07;;;;;;;2.90;2.00;;;;;;;;;;5046136;28;20235;-61
2023/05/17 11:38:35;;;;;;;3.55;2.10;;;;;;;;;;5047186;28;20230;-62
2023/05/17 11:41:17;;;;;;;4.13;2.45;;;;;;;;;;5046863;28;20203;-61
2023/05/17 11:43:47;;;;;;;3.58;2.20;;;;;;;;;;5048984;28;20202;-61
2023/05/17 11:46:19;;;;;;;4.15;2.03;;;;;;;;;;5046048;28;20225;-61
2023/05/17 11:48:47;;;;;;;5.18;2.22;;;;;;;;;;5046083;28;20207;-60
2023/05/17 11:51:15;;;;;;;5.85;2.60;;;;;;;;;;5050196;28;20208;-61
2023/05/17 11:53:42;;;;;;;5.50;2.42;;;;;;;;;;5044023;28;20207;-61
2023/05/17 11:56:10;;;;;;;4.95;2.10;;;;;;;;;;5049507;28;20218;-61
2023/05/17 11:58:37;;;;;;;4.07;2.40;;;;;;;;;;5045645;28;20229;-60
2023/05/17 12:01:07;;;;;;;5.05;2.50;;;;;;;;;;5044711;28;20257;-61
2023/05/17 12:03:35;;;;;;;4.20;2.28;;;;;;;;;;5048988;28;20207;-61
2023/05/17 12:06:03;;;;;;;4.75;2.30;;;;;;;;;;5046237;28;20226;-61
2023/05/17 12:08:32;;;;;;;5.93;2.42;;;;;;;;;;5046619;28;20199;-62
2023/05/17 12:10:59;;;;;;;3.75;2.00;;;;;;;;;;5048107;28;20204;-61
2023/05/17 12:13:28;;;;;;;4.47;2.30;;;;;;;;;;5046534;28;20204;-61
2023/05/17 12:15:56;;;;;;;5.25;2.10;;;;;;;;;;5039649;28;20204;-62
2023/05/17 12:18:35;;;;;;;3.80;1.77;;;;;;;;;;5043115;28;20230;-60
2023/05/17 12:21:02;;;;;;;4.55;2.08;;;;;;;;;;5047028;28;20208;-62
2023/05/17 12:23:30;;;;;;;5.20;2.60;;;;;;;;;;5044060;28;20222;-61
2023/05/17 12:26:10;;;;;;;5.13;2.25;;;;;;;;;;5044793;28;20335;-60
2023/05/17 12:28:38;;;;;;;4.00;2.28;;;;;;;;;;5042727;28;20203;-60
2023/05/17 12:31:06;;;;;;;7.65;2.47;;;;;;;;;;5047621;28;20208;-60
2023/05/17 12:33:37;;;;;;;3.83;2.08;;;;;;;;;;5041885;28;20219;-60
2023/05/17 12:36:05;;;;;;;5.15;1.92;;;;;;;;;;5045681;28;20199;-61
2023/05/17 12:38:33;;;;;;;4.03;2.00;;;;;;;;;;5045920;28;20223;-60
2023/05/17 12:41:02;;;;;;;4.57;2.13;;;;;;;;;;5044278;28;20227;-60
2023/05/17 12:43:30;;;;;;;5.30;2.20;;;;;;;;;;5047148;28;20203;-61
2023/05/17 12:46:03;;;;;;;4.43;1.90;;;;;;;;;;5050403;28;20222;-60
2023/05/17 12:48:30;;;;;;;3.40;1.90;;;;;;;;;;5050184;28;20199;-60
2023/05/17 12:50:58;;;;;;;4.53;2.20;;;;;;;;;;5046467;28;20204;-60
2023/05/17 12:53:35;;;;;;;4.80;2.10;;;;;;;;;;5047635;28;20230;-61
2023/05/17 12:56:02;;;;;;;5.38;2.38;;;;;;;;;;5041203;28;20256;-61
2023/05/17 12:58:29;;;;;;;6.03;2.17;;;;;;;;;;5043561;28;20238;-61
2023/05/17 13:00:57;;;;;;;4.00;2.15;;;;;;;;;;5042748;28;20207;-61
2023/05/17 13:03:25;;;;;;;4.88;2.20;;;;;;;;;;5044628;28;20210;-61
2023/05/17 13:05:59;;;;;;;3.83;2.30;;;;;;;;;;5043243;28;20212;-61
2023/05/17 13:08:26;;;;;;;5.82;2.50;;;;;;;;;;5046215;28;20203;-61
2023/05/17 13:10:53;;;;;;;4.60;2.30;;;;;;;;;;5046881;28;20208;-60
2023/05/17 13:13:21;;;;;;;5.45;2.17;;;;;;;;;;5048767;28;20214;-61
2023/05/17 13:15:48;;;;;;;4.82;2.40;;;;;;;;;;5042009;28;20203;-61
2023/05/17 13:18:16;;;;;;;4.80;2.03;;;;;;;;;;5042571;28;20239;-61
2023/05/17 13:20:44;;;;;;;4.50;2.13;;;;;;;;;;5047980;28;20214;-61
2023/05/17 13:23:12;;;;;;;5.60;2.13;;;;;;;;;;5048653;28;20195;-60
2023/05/17 13:25:39;;;;;;;4.32;2.05;;;;;;;;;;5050627;28;20203;-60
2023/05/17 13:28:06;;;;;;;6.82;2.28;;;;;;;;;;5047656;28;20207;-60
2023/05/17 13:30:33;;;;;;;4.15;2.00;;;;;;;;;;5049202;28;20207;-60
2023/05/17 13:33:00;;;;;;;4.90;2.17;;;;;;;;;;5049408;28;20203;-61
2023/05/17 13:35:27;;;;;;;6.63;2.35;;;;;;;;;;5048784;28;20208;-60
2023/05/17 13:37:56;;;;;;;5.25;1.90;;;;;;;;;;5047673;28;20220;-61
2023/05/17 13:40:25;;;;;;;4.20;1.85;;;;;;;;;;5048511;28;20197;-60
2023/05/17 13:42:52;;;;;;;5.75;2.17;;;;;;;;;;5050178;28;20203;-60
2023/05/17 13:45:19;;;;;;;6.88;2.22;;;;;;;;;;5052969;28;20221;-60
2023/05/17 13:47:46;;;;;;;5.50;2.22;;;;;;;;;;5044710;28;20214;-60
2023/05/17 13:50:16;;;;;;;3.47;1.90;;;;;;;;;;5052737;28;20218;-60
2023/05/17 13:52:43;;;;;;;7.13;2.05;;;;;;;;;;5046952;28;20200;-60
2023/05/17 13:55:10;;;;;;;6.18;2.00;;;;;;;;;;5045224;28;20203;-60
2023/05/17 13:57:39;;;;;;;4.03;2.00;;;;;;;;;;5050277;28;20227;-61
2023/05/17 14:00:07;;;;;;;5.60;2.30;;;;;;;;;;5045583;28;20203;-61
2023/05/17 14:02:34;;;;;;;4.65;1.90;;;;;;;;;;5049096;28;20230;-61
2023/05/17 14:05:03;;;;;;;5.05;2.25;;;;;;;;;;5049727;28;20207;-60
2023/05/17 14:07:30;;;;;;;3.55;2.08;;;;;;;;;;5047351;28;20294;-61
2023/05/17 14:09:57;;;;;;;3.28;2.05;;;;;;;;;;5040655;28;20195;-61
2023/05/17 14:12:25;;;;;;;6.10;2.33;;;;;;;;;;5044744;28;20200;-61
2023/05/17 14:14:53;;;;;;;4.05;1.85;;;;;;;;;;5049167;28;20207;-61
2023/05/17 14:17:20;;;;;;;6.03;2.45;;;;;;;;;;5046751;28;20246;-61
2023/05/17 14:19:47;;;;;;;6.20;2.20;;;;;;;;;;5048202;28;20207;-64
2023/05/17 14:22:14;;;;;;;4.85;2.00;;;;;;;;;;5051438;28;20214;-61
2023/05/17 14:24:41;;;;;;;4.53;2.10;;;;;;;;;;5044737;28;20207;-61
2023/05/17 14:27:08;;;;;;;3.95;1.95;;;;;;;;;;5052149;28;20204;-61
2023/05/17 14:29:36;;;;;;;5.30;2.30;;;;;;;;;;5053609;28;20199;-61
2023/05/17 14:32:05;;;;;;;5.88;2.30;;;;;;;;;;5052956;28;20207;-61
2023/05/17 14:34:32;;;;;;;4.40;2.47;;;;;;;;;;5050269;28;20292;-60
2023/05/17 14:36:59;;;;;;;4.72;2.03;;;;;;;;;;5051923;28;20207;-61
2023/05/17 14:39:26;;;;;;;5.65;2.30;;;;;;;;;;5053433;28;20208;-61
2023/05/17 14:41:54;;;;;;;5.50;2.03;;;;;;;;;;5051852;28;20199;-61
2023/05/17 14:44:21;;;;;;;3.92;2.28;;;;;;;;;;5046735;28;20200;-61
2023/05/17 14:46:48;;;;;;;4.55;2.10;;;;;;;;;;5047625;28;20199;-61